Time;durP1;ratioP1;P1;durP2;ratioP2;P2;SDS_P1;SDS_P2;PMS_P1;PMS_P2;Temp;Humidity;BMP_temperature;BMP_pressure;BME280_temperature;BME280_humidity;BME280_pressure;Samples;Min_cycle;Max_cycle;Signal;HPM_P1;HPM_P2
2024/01/11 00:01:12;;;;;;;27.63;18.93;;;;;;;-4.38;100.00;103252.53;5101049;28;20185;-72
2024/01/11 00:03:38;;;;;;;28.40;19.47;;;;;;;-4.31;100.00;103289.88;5081957;28;20428;-72
2024/01/11 00:06:04;;;;;;;25.50;17.30;;;;;;;-4.13;100.00;103320.84;5092591;28;20185;-71
2024/01/11 00:08:30;;;;;;;29.90;20.80;;;;;;;-4.24;100.00;103312.41;5096754;28;20206;-72
2024/01/11 00:10:55;;;;;;;26.13;18.67;;;;;;;-4.42;100.00;103219.47;5093956;28;20463;-71
2024/01/11 00:13:21;;;;;;;29.00;20.10;;;;;;;-4.14;100.00;103285.06;5085024;28;20435;-72
2024/01/11 00:15:46;;;;;;;31.73;21.93;;;;;;;-5.10;100.00;103114.88;5096995;28;20263;-71
2024/01/11 00:18:11;;;;;;;28.97;20.90;;;;;;;-4.77;100.00;103191.63;5099866;28;20707;-72
2024/01/11 00:20:37;;;;;;;25.83;18.13;;;;;;;-4.30;100.00;103248.84;5093825;28;21177;-71
2024/01/11 00:23:03;;;;;;;31.23;22.13;;;;;;;-4.70;100.00;103214.13;5095714;28;20175;-72
2024/01/11 00:25:31;;;;;;;29.17;19.97;;;;;;;-4.36;100.00;103282.16;5098657;28;20603;-71
2024/01/11 00:27:56;;;;;;;27.90;19.75;;;;;;;-4.27;100.00;103274.97;5092817;28;20205;-72
2024/01/11 00:30:23;;;;;;;28.13;20.60;;;;;;;-4.60;100.00;103247.03;5096835;28;20215;-72
2024/01/11 00:32:48;;;;;;;26.38;18.63;;;;;;;-4.23;100.00;103316.75;5096892;28;20592;-71
2024/01/11 00:35:14;;;;;;;25.67;16.93;;;;;;;-4.43;100.00;103271.88;5085479;28;20194;-72
2024/01/11 00:37:39;;;;;;;30.13;20.07;;;;;;;-4.48;100.00;103324.44;5099249;28;20217;-72
2024/01/11 00:40:05;;;;;;;31.07;19.60;;;;;;;-5.43;100.00;103151.50;5104011;28;20593;-72
2024/01/11 00:42:31;;;;;;;27.70;18.15;;;;;;;-5.35;100.00;103164.34;5081366;28;20182;-71
2024/01/11 00:44:56;;;;;;;30.97;19.43;;;;;;;-4.21;100.00;103320.19;5091921;28;20204;-72
2024/01/11 00:47:22;;;;;;;26.17;18.20;;;;;;;-4.21;100.00;103301.00;5100732;28;20197;-72
2024/01/11 00:49:47;;;;;;;32.17;19.80;;;;;;;-4.04;100.00;103283.03;5096880;28;20656;-71
2024/01/11 00:52:13;;;;;;;34.23;21.40;;;;;;;-5.19;100.00;103136.06;5098749;28;20679;-72
2024/01/11 00:54:39;;;;;;;28.48;19.00;;;;;;;-4.75;100.00;103275.38;5095820;28;20593;-72
2024/01/11 00:57:04;;;;;;;27.60;18.83;;;;;;;-4.90;100.00;103253.06;5096999;28;20220;-72
2024/01/11 00:59:30;;;;;;;28.63;18.93;;;;;;;-4.33;100.00;103302.19;5090662;28;20247;-71
2024/01/11 01:01:55;;;;;;;26.40;17.83;;;;;;;-4.52;100.00;103312.28;5093670;28;20181;-71
2024/01/11 01:04:21;;;;;;;29.23;19.13;;;;;;;-4.58;100.00;103300.22;5099068;28;20188;-72
2024/01/11 01:06:46;;;;;;;32.43;20.90;;;;;;;-4.35;100.00;103320.56;5092310;28;20167;-72
2024/01/11 01:09:13;;;;;;;28.00;18.90;;;;;;;-5.08;100.00;103166.28;5106067;28;20260;-71
2024/01/11 01:11:38;;;;;;;33.63;20.50;;;;;;;-5.52;100.00;103061.03;5095995;28;20178;-72
2024/01/11 01:14:04;;;;;;;32.03;19.83;;;;;;;-4.21;100.00;103238.09;5082994;28;20238;-72
2024/01/11 01:16:30;;;;;;;30.40;20.53;;;;;;;-4.41;100.00;103212.47;5081313;28;20226;-72
2024/01/11 01:18:55;;;;;;;29.13;19.93;;;;;;;-4.92;100.00;103216.44;5097230;28;20458;-72
2024/01/11 01:21:21;;;;;;;31.03;20.47;;;;;;;-5.00;100.00;103198.34;5095155;28;20258;-72
2024/01/11 01:23:46;;;;;;;30.60;20.00;;;;;;;-4.40;100.00;103309.34;5084096;28;20185;-72
2024/01/11 01:26:12;;;;;;;31.80;20.13;;;;;;;-4.50;100.00;103325.38;5097558;28;20640;-72
2024/01/11 01:28:37;;;;;;;28.90;19.67;;;;;;;-4.57;100.00;103308.91;5100736;28;20253;-71
2024/01/11 01:31:03;;;;;;;31.60;19.90;;;;;;;-4.41;100.00;103328.59;5080794;28;20185;-72
2024/01/11 01:33:28;;;;;;;27.90;18.37;;;;;;;-4.57;100.00;103299.34;5081149;28;20223;-72
2024/01/11 01:35:53;;;;;;;28.63;19.63;;;;;;;-4.92;100.00;103260.94;5075975;28;20651;-72
2024/01/11 01:38:19;;;;;;;26.60;18.37;;;;;;;-4.42;100.00;103334.75;5082778;28;20220;-72
2024/01/11 01:40:45;;;;;;;29.43;19.10;;;;;;;-4.38;100.00;103323.25;5098676;28;20182;-72
2024/01/11 01:43:10;;;;;;;28.47;19.70;;;;;;;-4.58;100.00;103284.50;5101990;28;20265;-72
2024/01/11 01:45:36;;;;;;;29.43;19.57;;;;;;;-4.98;100.00;103216.59;5083255;28;20189;-72
2024/01/11 01:48:02;;;;;;;28.47;17.80;;;;;;;-4.55;100.00;103313.22;5092350;28;20198;-72
2024/01/11 01:50:29;;;;;;;30.70;19.10;;;;;;;-4.92;100.00;103288.88;5086579;28;20186;-72
2024/01/11 01:52:55;;;;;;;33.13;20.30;;;;;;;-4.71;100.00;103311.06;5086250;28;20189;-72
2024/01/11 01:55:22;;;;;;;27.47;17.90;;;;;;;-5.00;100.00;103270.78;5078695;28;20427;-72
2024/01/11 01:57:49;;;;;;;29.80;19.20;;;;;;;-4.62;100.00;103361.44;5079050;28;20468;-72
2024/01/11 02:00:16;;;;;;;25.85;17.45;;;;;;;-5.20;100.00;103249.47;5090508;28;20190;-72
2024/01/11 02:02:44;;;;;;;29.92;19.50;;;;;;;-4.45;100.00;103362.78;5080328;28;20590;-71
2024/01/11 02:05:12;;;;;;;28.63;18.50;;;;;;;-4.75;100.00;103339.06;5098337;28;20338;-71
2024/01/11 02:07:39;;;;;;;28.05;19.05;;;;;;;-4.92;100.00;103268.78;5092082;28;20444;-72
2024/01/11 02:10:06;;;;;;;26.57;17.77;;;;;;;-4.48;100.00;103360.22;5092486;28;20194;-72
2024/01/11 02:12:33;;;;;;;28.52;17.80;;;;;;;-4.57;100.00;103333.38;5089468;28;21378;-72
2024/01/11 02:14:59;;;;;;;32.28;19.83;;;;;;;-4.59;100.00;103282.78;5084181;28;20302;-72
2024/01/11 02:17:24;;;;;;;28.13;18.60;;;;;;;-4.37;100.00;103304.03;5093069;28;20235;-72
2024/01/11 02:19:50;;;;;;;30.67;20.13;;;;;;;-4.18;100.00;103319.25;5092273;28;23105;-72
2024/01/11 02:22:24;;;;;;;30.00;18.27;;;;;;;-4.31;100.00;103318.72;5080813;28;20190;-71
2024/01/11 02:24:50;;;;;;;28.73;18.58;;;;;;;-4.27;100.00;103333.47;5094697;28;20181;-72
2024/01/11 02:27:15;;;;;;;29.50;18.53;;;;;;;-4.24;100.00;103298.47;5090815;28;20224;-72
2024/01/11 02:29:40;;;;;;;29.80;19.53;;;;;;;-4.12;100.00;103312.06;5085335;28;20189;-72
2024/01/11 02:32:08;;;;;;;33.37;21.10;;;;;;;-4.19;100.00;103278.22;5092876;28;20652;-72
2024/01/11 02:34:34;;;;;;;30.75;21.42;;;;;;;-4.09;100.00;103298.88;5073662;28;20273;-72
2024/01/11 02:37:00;;;;;;;31.17;19.70;;;;;;;-4.11;100.00;103298.09;5073685;28;20209;-72
2024/01/11 02:39:26;;;;;;;29.00;19.07;;;;;;;-3.94;100.00;103288.84;5077216;28;20436;-72
2024/01/11 02:41:53;;;;;;;34.20;21.90;;;;;;;-3.86;100.00;103281.63;5085317;28;20428;-72
2024/01/11 02:44:18;;;;;;;29.50;19.40;;;;;;;-3.78;100.00;103287.50;5076705;28;20442;-72
2024/01/11 02:46:44;;;;;;;29.67;20.10;;;;;;;-4.30;100.00;103209.53;5097131;28;20431;-71
2024/01/11 02:49:09;;;;;;;32.80;21.33;;;;;;;-3.80;100.00;103276.19;5078043;28;20268;-72
2024/01/11 02:51:36;;;;;;;29.00;19.27;;;;;;;-4.15;100.00;103190.72;5073902;28;20174;-71
2024/01/11 02:54:02;;;;;;;30.42;19.55;;;;;;;-3.95;100.00;103235.56;5077375;28;20556;-71
2024/01/11 02:56:27;;;;;;;30.27;20.40;;;;;;;-3.90;100.00;103186.47;5088981;28;20173;-72
2024/01/11 02:58:53;;;;;;;29.70;20.10;;;;;;;-4.21;100.00;103123.63;5095853;28;20623;-72
2024/01/11 03:01:18;;;;;;;31.43;20.43;;;;;;;-3.48;100.00;103214.00;5102397;28;20196;-71
2024/01/11 03:03:44;;;;;;;32.13;21.20;;;;;;;-3.78;100.00;103189.63;5070382;28;20178;-71
2024/01/11 03:06:09;;;;;;;30.23;20.97;;;;;;;-3.64;100.00;103145.44;5095710;28;20194;-72
2024/01/11 03:08:35;;;;;;;28.80;19.73;;;;;;;-3.82;100.00;103131.13;5093809;28;20205;-72
2024/01/11 03:11:00;;;;;;;31.43;20.43;;;;;;;-3.34;100.00;103142.69;5075782;28;20263;-72
2024/01/11 03:13:26;;;;;;;29.60;20.10;;;;;;;-3.51;100.00;103140.63;5095076;28;20275;-71
2024/01/11 03:15:51;;;;;;;32.20;20.37;;;;;;;-3.39;100.00;103153.34;5097019;28;20193;-72
2024/01/11 03:18:16;;;;;;;31.40;20.10;;;;;;;-3.83;100.00;103040.28;5099319;28;20213;-72
2024/01/11 03:20:42;;;;;;;30.13;20.73;;;;;;;-3.93;100.00;103002.19;5098624;28;20177;-72
2024/01/11 03:23:07;;;;;;;30.03;20.70;;;;;;;-3.76;100.00;103059.28;5077805;28;20193;-72
2024/01/11 03:25:33;;;;;;;30.37;21.00;;;;;;;-3.14;100.00;103110.53;5077919;28;20197;-73
2024/01/11 03:27:59;;;;;;;31.30;21.30;;;;;;;-3.91;100.00;102946.13;5079623;28;20202;-72
2024/01/11 03:30:24;;;;;;;31.13;20.73;;;;;;;-3.75;100.00;102985.81;5098964;28;20260;-72
2024/01/11 03:32:50;;;;;;;29.57;19.87;;;;;;;-3.55;100.00;103031.47;5103685;28;20220;-72
2024/01/11 03:35:16;;;;;;;33.17;20.90;;;;;;;-3.24;100.00;103049.59;5100550;28;20431;-71
2024/01/11 03:37:41;;;;;;;32.80;21.47;;;;;;;-2.99;100.00;103079.31;5093202;27;20209;-72
2024/01/11 03:40:07;;;;;;;31.00;20.77;;;;;;;-2.99;100.00;103084.56;5082533;28;20181;-72
2024/01/11 03:42:32;;;;;;;30.00;19.60;;;;;;;-2.90;100.00;103064.97;5093763;28;20190;-72
2024/01/11 03:44:58;;;;;;;29.70;20.97;;;;;;;-2.93;100.00;103027.47;5095737;28;20469;-72
2024/01/11 03:47:23;;;;;;;31.77;21.10;;;;;;;-3.78;100.00;102825.94;5098659;28;20279;-72
2024/01/11 03:49:49;;;;;;;31.00;21.37;;;;;;;-3.66;100.00;102872.69;5094502;28;20190;-72
2024/01/11 03:52:14;;;;;;;30.00;21.23;;;;;;;-3.16;100.00;102937.28;5095996;28;20687;-72
2024/01/11 03:54:40;;;;;;;31.23;20.80;;;;;;;-2.74;100.00;102976.81;5093093;28;20560;-72
2024/01/11 03:57:06;;;;;;;32.60;21.30;;;;;;;-2.69;100.00;102974.03;5094851;28;20208;-71
2024/01/11 03:59:32;;;;;;;34.53;21.53;;;;;;;-2.67;100.00;102961.66;5076413;28;20218;-72
2024/01/11 04:01:58;;;;;;;28.30;19.30;;;;;;;-2.64;100.00;102956.28;5080240;28;20806;-72
2024/01/11 04:04:23;;;;;;;31.80;21.87;;;;;;;-2.60;100.00;102936.00;5100136;28;20290;-71
2024/01/11 04:06:49;;;;;;;32.20;22.37;;;;;;;-2.59;100.00;102933.31;5074128;28;21143;-71
2024/01/11 04:09:15;;;;;;;30.07;21.33;;;;;;;-3.37;100.00;102786.78;5089525;28;20205;-71
2024/01/11 04:11:40;;;;;;;32.53;21.30;;;;;;;-2.48;100.00;102893.47;5096720;28;20467;-72
2024/01/11 04:14:06;;;;;;;29.57;19.67;;;;;;;-2.52;100.00;102891.88;5077363;28;20280;-71
2024/01/11 04:16:31;;;;;;;28.30;18.87;;;;;;;-2.70;100.00;102847.97;5077238;28;20194;-72
2024/01/11 04:18:57;;;;;;;32.57;20.80;;;;;;;-2.98;100.00;102781.69;5092551;28;20265;-72
2024/01/11 04:21:29;;;;;;;28.97;20.23;;;;;;;-2.36;100.00;102873.69;5099666;28;20194;-72
2024/01/11 04:23:56;;;;;;;32.53;21.07;;;;;;;-2.07;100.00;102877.69;5095034;28;20240;-71
2024/01/11 04:26:21;;;;;;;27.83;19.93;;;;;;;-1.94;100.00;102904.31;5095956;28;20466;-71
2024/01/11 04:28:47;;;;;;;30.47;19.97;;;;;;;-2.21;100.00;102909.00;5085402;28;20928;-72
2024/01/11 04:31:16;;;;;;;27.50;19.87;;;;;;;-2.85;100.00;102831.06;5089920;28;20178;-72
2024/01/11 04:33:43;;;;;;;28.80;19.77;;;;;;;-2.76;100.00;102842.03;5097619;28;21592;-72
2024/01/11 04:36:09;;;;;;;30.60;19.90;;;;;;;-2.31;100.00;102908.53;5096198;28;20523;-72
2024/01/11 04:38:35;;;;;;;30.07;20.07;;;;;;;-2.20;100.00;102884.41;5083606;27;20485;-71
2024/01/11 04:41:00;;;;;;;30.00;20.80;;;;;;;-2.69;100.00;102823.41;5100582;28;20431;-71
2024/01/11 04:43:26;;;;;;;27.93;20.07;;;;;;;-2.43;100.00;102782.88;5100970;28;20268;-72
2024/01/11 04:45:51;;;;;;;30.37;20.50;;;;;;;-2.30;100.00;102816.44;5080326;28;20182;-73
2024/01/11 04:48:18;;;;;;;29.10;19.77;;;;;;;-2.09;100.00;102803.28;5081524;28;20206;-73
2024/01/11 04:50:44;;;;;;;26.93;18.60;;;;;;;-2.50;100.00;102762.13;5098546;28;20182;-72
2024/01/11 04:53:10;;;;;;;30.37;19.90;;;;;;;-2.10;100.00;102849.75;5106319;28;21013;-72
2024/01/11 04:55:35;;;;;;;29.97;20.17;;;;;;;-2.50;100.00;102769.16;5082374;28;20443;-72
2024/01/11 04:58:00;;;;;;;30.80;20.00;;;;;;;-2.34;100.00;102791.22;5092471;28;21151;-72
2024/01/11 05:00:26;;;;;;;28.00;18.40;;;;;;;-3.24;100.00;102621.78;5097209;28;20189;-72
2024/01/11 05:02:51;;;;;;;29.10;20.07;;;;;;;-2.09;100.00;102811.16;5079369;28;20194;-72
2024/01/11 05:05:17;;;;;;;29.37;20.43;;;;;;;-2.08;100.00;102689.31;5093804;28;20234;-72
2024/01/11 05:07:42;;;;;;;27.53;18.83;;;;;;;-1.94;100.00;102659.72;5077911;28;20200;-71
2024/01/11 05:10:08;;;;;;;30.07;20.23;;;;;;;-1.85;100.00;102648.78;5073806;28;20190;-71
2024/01/11 05:12:33;;;;;;;31.43;19.67;;;;;;;-2.28;100.00;102577.19;5086129;28;20239;-71
2024/01/11 05:14:59;;;;;;;29.00;18.93;;;;;;;-2.05;100.00;102584.81;5086085;28;20188;-72
2024/01/11 05:17:25;;;;;;;29.60;19.70;;;;;;;-2.07;100.00;102534.06;5092217;28;20429;-72
2024/01/11 05:19:51;;;;;;;31.50;20.73;;;;;;;-2.44;100.00;102484.22;5087875;28;20189;-72
2024/01/11 05:22:17;;;;;;;28.07;18.10;;;;;;;-2.23;100.00;102527.00;5093328;28;20440;-72
2024/01/11 05:24:43;;;;;;;28.13;19.67;;;;;;;-1.66;100.00;102603.97;5094171;28;20268;-72
2024/01/11 05:27:08;;;;;;;28.50;19.57;;;;;;;-1.79;100.00;102609.00;5078225;28;20527;-72
2024/01/11 05:29:34;;;;;;;28.20;19.70;;;;;;;-2.30;100.00;102492.28;5078299;28;20237;-72
2024/01/11 05:31:59;;;;;;;29.40;19.73;;;;;;;-1.88;100.00;102552.44;5081999;28;20181;-72
2024/01/11 05:34:25;;;;;;;29.20;18.90;;;;;;;-1.96;100.00;102532.72;5072686;28;20181;-72
2024/01/11 05:36:50;;;;;;;26.90;18.93;;;;;;;-2.05;100.00;102545.38;5083023;28;20745;-72
2024/01/11 05:39:16;;;;;;;27.63;18.10;;;;;;;-1.92;100.00;102565.81;5083982;28;20231;-72
2024/01/11 05:41:45;;;;;;;28.40;19.90;;;;;;;-1.96;100.00;102574.78;5096859;28;20197;-72
2024/01/11 05:44:10;;;;;;;24.30;17.17;;;;;;;-1.97;100.00;102541.50;5081114;28;20299;-72
2024/01/11 05:46:36;;;;;;;27.57;18.87;;;;;;;-1.79;100.00;102509.06;5092675;28;20460;-72
2024/01/11 05:49:01;;;;;;;26.23;17.23;;;;;;;-1.61;100.00;102523.88;5096121;28;20210;-72
2024/01/11 05:51:26;;;;;;;26.30;16.73;;;;;;;-1.68;100.00;102514.63;5100285;28;20204;-72
2024/01/11 05:53:52;;;;;;;23.53;16.77;;;;;;;-1.62;100.00;102539.75;5096590;28;20550;-72
2024/01/11 05:56:20;;;;;;;26.27;16.87;;;;;;;-1.54;100.00;102584.94;5096445;28;20657;-71
2024/01/11 05:58:45;;;;;;;25.80;16.60;;;;;;;-1.71;100.00;102611.25;5079404;28;20692;-72
2024/01/11 06:01:11;;;;;;;26.27;16.70;;;;;;;-1.35;100.00;102707.75;5096834;28;20452;-72
2024/01/11 06:03:38;;;;;;;24.10;17.40;;;;;;;-2.14;100.00;102619.44;5098359;28;20174;-72
2024/01/11 06:06:04;;;;;;;27.80;17.97;;;;;;;-1.68;100.00;102742.66;5101746;28;20551;-72
2024/01/11 06:08:33;;;;;;;28.33;19.10;;;;;;;-1.84;100.00;102763.56;5098423;28;20988;-72
2024/01/11 06:10:58;;;;;;;25.90;17.67;;;;;;;-1.47;100.00;102806.59;5099077;28;20442;-72
2024/01/11 06:13:24;;;;;;;26.50;17.30;;;;;;;-1.31;100.00;102810.19;5102412;28;20839;-72
2024/01/11 06:15:50;;;;;;;25.03;16.20;;;;;;;-1.20;100.00;102814.94;5080708;28;20182;-72
2024/01/11 06:18:20;;;;;;;26.70;17.77;;;;;;;-3.41;100.00;102450.19;5077577;22;20234;-72
2024/01/11 06:20:48;;;;;;;26.87;17.87;;;;;;;-2.87;100.00;102615.78;5012562;28;20497;-73
2024/01/11 06:23:18;;;;;;;25.60;17.43;;;;;;;-3.60;100.00;102520.13;5014896;28;20446;-73
2024/01/11 06:25:46;;;;;;;27.10;17.30;;;;;;;-2.71;100.00;102631.72;5020697;28;20465;-72
2024/01/11 06:28:13;;;;;;;23.63;16.30;;;;;;;-3.74;100.00;102455.16;5014391;28;20501;-72
2024/01/11 06:33:21;;;;;;;23.03;15.70;;;;;;;-2.81;100.00;102430.81;5128919;27;20551;-73
2024/01/11 06:35:47;;;;;;;24.77;17.33;;;;;;;-2.80;100.00;102435.16;5096792;28;20436;-72
2024/01/11 06:38:12;;;;;;;24.13;15.90;;;;;;;-2.26;100.00;102559.56;5099676;27;20450;-72
2024/01/11 06:44:02;;;;;;;24.07;16.77;;;;;;;-3.57;100.00;102207.84;5062976;27;20556;-74
